sensor_id;sensor_type;location;lat;lon;timestamp;P1;durP1;ratioP1;P2;durP2;ratioP2
50709;SDS011;37033;49.994;21.992;2023-04-22T00:01:39;38.30;;;19.80;;
50709;SDS011;37033;49.994;21.992;2023-04-22T00:04:09;39.30;;;20.60;;
50709;SDS011;37033;49.994;21.992;2023-04-22T00:06:41;35.80;;;18.30;;
50709;SDS011;37033;49.994;21.992;2023-04-22T00:09:12;34.60;;;18.70;;
50709;SDS011;37033;49.994;21.992;2023-04-22T00:11:43;39.80;;;17.80;;
50709;SDS011;37033;49.994;21.992;2023-04-22T00:14:14;38.30;;;19.00;;
50709;SDS011;37033;49.994;21.992;2023-04-22T00:16:45;33.70;;;18.40;;
50709;SDS011;37033;49.994;21.992;2023-04-22T00:19:16;41.60;;;20.60;;
50709;SDS011;37033;49.994;21.992;2023-04-22T00:21:48;36.70;;;18.80;;
50709;SDS011;37033;49.994;21.992;2023-04-22T00:24:19;34.60;;;18.20;;
50709;SDS011;37033;49.994;21.992;2023-04-22T00:26:50;42.70;;;18.90;;
50709;SDS011;37033;49.994;21.992;2023-04-22T00:29:21;40.50;;;18.70;;
50709;SDS011;37033;49.994;21.992;2023-04-22T00:31:52;34.50;;;16.90;;
50709;SDS011;37033;49.994;21.992;2023-04-22T00:34:23;35.90;;;19.20;;
50709;SDS011;37033;49.994;21.992;2023-04-22T00:36:54;33.30;;;18.40;;
50709;SDS011;37033;49.994;21.992;2023-04-22T00:39:25;33.30;;;19.10;;
50709;SDS011;37033;49.994;21.992;2023-04-22T00:41:57;33.50;;;18.00;;
50709;SDS011;37033;49.994;21.992;2023-04-22T00:44:28;31.70;;;17.70;;
50709;SDS011;37033;49.994;21.992;2023-04-22T00:47:00;33.00;;;18.10;;
50709;SDS011;37033;49.994;21.992;2023-04-22T00:49:31;28.70;;;16.90;;
50709;SDS011;37033;49.994;21.992;2023-04-22T00:52:04;37.30;;;18.30;;
50709;SDS011;37033;49.994;21.992;2023-04-22T00:54:35;33.80;;;17.30;;
50709;SDS011;37033;49.994;21.992;2023-04-22T00:57:06;32.40;;;17.90;;
50709;SDS011;37033;49.994;21.992;2023-04-22T00:59:37;36.30;;;19.00;;
50709;SDS011;37033;49.994;21.992;2023-04-22T01:02:08;33.20;;;16.70;;
50709;SDS011;37033;49.994;21.992;2023-04-22T01:04:39;34.70;;;17.80;;
50709;SDS011;37033;49.994;21.992;2023-04-22T01:07:10;29.60;;;17.40;;
50709;SDS011;37033;49.994;21.992;2023-04-22T01:09:41;38.30;;;19.10;;
50709;SDS011;37033;49.994;21.992;2023-04-22T01:12:12;33.80;;;17.30;;
50709;SDS011;37033;49.994;21.992;2023-04-22T01:14:48;29.30;;;17.40;;
50709;SDS011;37033;49.994;21.992;2023-04-22T01:17:19;29.10;;;17.20;;
50709;SDS011;37033;49.994;21.992;2023-04-22T01:19:51;32.20;;;16.90;;
50709;SDS011;37033;49.994;21.992;2023-04-22T01:22:22;34.40;;;17.10;;
50709;SDS011;37033;49.994;21.992;2023-04-22T01:24:56;32.50;;;17.10;;
50709;SDS011;37033;49.994;21.992;2023-04-22T01:27:27;30.60;;;17.30;;
50709;SDS011;37033;49.994;21.992;2023-04-22T01:29:58;31.50;;;16.70;;
50709;SDS011;37033;49.994;21.992;2023-04-22T01:32:30;35.10;;;17.20;;
50709;SDS011;37033;49.994;21.992;2023-04-22T01:35:01;30.40;;;16.00;;
50709;SDS011;37033;49.994;21.992;2023-04-22T01:37:33;29.70;;;17.50;;
50709;SDS011;37033;49.994;21.992;2023-04-22T01:40:05;32.50;;;16.60;;
50709;SDS011;37033;49.994;21.992;2023-04-22T01:42:37;25.50;;;15.90;;
50709;SDS011;37033;49.994;21.992;2023-04-22T01:45:09;24.90;;;15.70;;
50709;SDS011;37033;49.994;21.992;2023-04-22T01:47:41;33.20;;;16.50;;
50709;SDS011;37033;49.994;21.992;2023-04-22T01:50:12;29.30;;;15.70;;
50709;SDS011;37033;49.994;21.992;2023-04-22T01:52:43;30.80;;;16.30;;
50709;SDS011;37033;49.994;21.992;2023-04-22T01:55:14;31.00;;;16.30;;
50709;SDS011;37033;49.994;21.992;2023-04-22T01:57:45;28.30;;;16.10;;
50709;SDS011;37033;49.994;21.992;2023-04-22T02:00:16;30.50;;;16.60;;
50709;SDS011;37033;49.994;21.992;2023-04-22T02:02:47;31.40;;;15.60;;
50709;SDS011;37033;49.994;21.992;2023-04-22T02:05:18;32.10;;;16.30;;
50709;SDS011;37033;49.994;21.992;2023-04-22T02:07:51;27.80;;;16.50;;
50709;SDS011;37033;49.994;21.992;2023-04-22T02:10:22;35.10;;;16.10;;
50709;SDS011;37033;49.994;21.992;2023-04-22T02:12:53;28.60;;;16.00;;
50709;SDS011;37033;49.994;21.992;2023-04-22T02:15:24;23.60;;;15.70;;
50709;SDS011;37033;49.994;21.992;2023-04-22T02:17:55;28.30;;;16.40;;
50709;SDS011;37033;49.994;21.992;2023-04-22T02:20:26;29.40;;;16.10;;
50709;SDS011;37033;49.994;21.992;2023-04-22T02:22:57;26.80;;;15.10;;
50709;SDS011;37033;49.994;21.992;2023-04-22T02:25:29;33.70;;;15.40;;
50709;SDS011;37033;49.994;21.992;2023-04-22T02:27:59;27.90;;;15.20;;
50709;SDS011;37033;49.994;21.992;2023-04-22T02:30:30;29.40;;;16.00;;
50709;SDS011;37033;49.994;21.992;2023-04-22T02:33:01;26.70;;;15.50;;
50709;SDS011;37033;49.994;21.992;2023-04-22T02:35:32;27.60;;;15.80;;
50709;SDS011;37033;49.994;21.992;2023-04-22T02:38:04;29.10;;;15.40;;
50709;SDS011;37033;49.994;21.992;2023-04-22T02:40:35;30.40;;;15.60;;
50709;SDS011;37033;49.994;21.992;2023-04-22T02:43:06;28.70;;;16.10;;
50709;SDS011;37033;49.994;21.992;2023-04-22T02:45:37;26.90;;;14.80;;
50709;SDS011;37033;49.994;21.992;2023-04-22T02:48:08;25.60;;;15.40;;
50709;SDS011;37033;49.994;21.992;2023-04-22T02:50:39;30.90;;;15.80;;
50709;SDS011;37033;49.994;21.992;2023-04-22T02:53:10;28.20;;;15.60;;
50709;SDS011;37033;49.994;21.992;2023-04-22T02:55:41;25.90;;;15.20;;
50709;SDS011;37033;49.994;21.992;2023-04-22T02:58:11;28.50;;;15.40;;
50709;SDS011;37033;49.994;21.992;2023-04-22T03:00:42;26.90;;;14.90;;
50709;SDS011;37033;49.994;21.992;2023-04-22T03:03:13;26.80;;;14.60;;
50709;SDS011;37033;49.994;21.992;2023-04-22T03:05:44;26.90;;;15.10;;
50709;SDS011;37033;49.994;21.992;2023-04-22T03:08:14;24.90;;;14.30;;
50709;SDS011;37033;49.994;21.992;2023-04-22T03:10:45;25.10;;;14.60;;
50709;SDS011;37033;49.994;21.992;2023-04-22T03:13:16;30.60;;;16.80;;
50709;SDS011;37033;49.994;21.992;2023-04-22T03:15:47;25.50;;;15.00;;
50709;SDS011;37033;49.994;21.992;2023-04-22T03:18:18;26.40;;;13.80;;
50709;SDS011;37033;49.994;21.992;2023-04-22T03:20:49;26.90;;;15.30;;
50709;SDS011;37033;49.994;21.992;2023-04-22T03:23:20;24.90;;;13.50;;
50709;SDS011;37033;49.994;21.992;2023-04-22T03:25:51;21.60;;;13.50;;
50709;SDS011;37033;49.994;21.992;2023-04-22T03:28:21;26.00;;;15.20;;
50709;SDS011;37033;49.994;21.992;2023-04-22T03:30:52;21.40;;;13.70;;
50709;SDS011;37033;49.994;21.992;2023-04-22T03:33:23;25.30;;;13.90;;
50709;SDS011;37033;49.994;21.992;2023-04-22T03:35:54;21.60;;;13.50;;
50709;SDS011;37033;49.994;21.992;2023-04-22T03:38:25;22.90;;;14.10;;
50709;SDS011;37033;49.994;21.992;2023-04-22T03:40:55;34.60;;;14.90;;
50709;SDS011;37033;49.994;21.992;2023-04-22T03:43:26;22.30;;;13.20;;
50709;SDS011;37033;49.994;21.992;2023-04-22T03:45:57;28.70;;;14.80;;
50709;SDS011;37033;49.994;21.992;2023-04-22T03:48:28;25.50;;;14.00;;
50709;SDS011;37033;49.994;21.992;2023-04-22T03:51:02;26.40;;;14.80;;
50709;SDS011;37033;49.994;21.992;2023-04-22T03:53:36;25.50;;;15.00;;
50709;SDS011;37033;49.994;21.992;2023-04-22T03:56:08;25.00;;;14.60;;
50709;SDS011;37033;49.994;21.992;2023-04-22T03:58:38;26.20;;;14.60;;
50709;SDS011;37033;49.994;21.992;2023-04-22T04:01:12;25.60;;;14.40;;
50709;SDS011;37033;49.994;21.992;2023-04-22T04:03:44;30.70;;;14.20;;
50709;SDS011;37033;49.994;21.992;2023-04-22T04:06:14;26.10;;;14.50;;
50709;SDS011;37033;49.994;21.992;2023-04-22T04:08:46;24.60;;;15.00;;
50709;SDS011;37033;49.994;21.992;2023-04-22T04:11:17;27.50;;;15.90;;
50709;SDS011;37033;49.994;21.992;2023-04-22T04:13:47;57.30;;;28.00;;
50709;SDS011;37033;49.994;21.992;2023-04-22T04:16:18;107.00;;;48.80;;
50709;SDS011;37033;49.994;21.992;2023-04-22T04:18:49;170.00;;;68.70;;
50709;SDS011;37033;49.994;21.992;2023-04-22T04:21:20;145.90;;;57.30;;
50709;SDS011;37033;49.994;21.992;2023-04-22T04:23:54;103.20;;;47.80;;
50709;SDS011;37033;49.994;21.992;2023-04-22T04:26:25;63.20;;;31.20;;
50709;SDS011;37033;49.994;21.992;2023-04-22T04:28:57;44.80;;;24.50;;
50709;SDS011;37033;49.994;21.992;2023-04-22T04:34:04;26.70;;;14.00;;
50709;SDS011;37033;49.994;21.992;2023-04-22T04:36:35;27.60;;;13.90;;
50709;SDS011;37033;49.994;21.992;2023-04-22T04:39:06;26.40;;;14.00;;
50709;SDS011;37033;49.994;21.992;2023-04-22T04:41:37;22.80;;;12.30;;
50709;SDS011;37033;49.994;21.992;2023-04-22T04:44:08;21.50;;;13.80;;
50709;SDS011;37033;49.994;21.992;2023-04-22T04:46:39;24.60;;;13.30;;
50709;SDS011;37033;49.994;21.992;2023-04-22T04:49:11;20.50;;;12.50;;
50709;SDS011;37033;49.994;21.992;2023-04-22T04:51:42;22.90;;;13.20;;
50709;SDS011;37033;49.994;21.992;2023-04-22T04:54:13;23.40;;;13.20;;
50709;SDS011;37033;49.994;21.992;2023-04-22T04:56:43;26.20;;;13.30;;
50709;SDS011;37033;49.994;21.992;2023-04-22T04:59:14;23.00;;;13.20;;
50709;SDS011;37033;49.994;21.992;2023-04-22T05:01:45;21.00;;;12.40;;
50709;SDS011;37033;49.994;21.992;2023-04-22T05:04:22;27.50;;;12.40;;
50709;SDS011;37033;49.994;21.992;2023-04-22T05:06:53;22.10;;;13.50;;
50709;SDS011;37033;49.994;21.992;2023-04-22T05:09:27;21.20;;;12.90;;
50709;SDS011;37033;49.994;21.992;2023-04-22T05:12:07;21.50;;;12.60;;
50709;SDS011;37033;49.994;21.992;2023-04-22T05:14:38;24.20;;;12.70;;
50709;SDS011;37033;49.994;21.992;2023-04-22T05:17:12;22.40;;;12.80;;
50709;SDS011;37033;49.994;21.992;2023-04-22T05:19:46;23.60;;;13.70;;
50709;SDS011;37033;49.994;21.992;2023-04-22T05:22:25;20.20;;;12.60;;
50709;SDS011;37033;49.994;21.992;2023-04-22T05:24:55;20.20;;;12.80;;
50709;SDS011;37033;49.994;21.992;2023-04-22T05:27:26;21.70;;;13.10;;
50709;SDS011;37033;49.994;21.992;2023-04-22T05:29:58;22.60;;;12.40;;
50709;SDS011;37033;49.994;21.992;2023-04-22T05:32:35;19.30;;;12.10;;
50709;SDS011;37033;49.994;21.992;2023-04-22T05:35:14;20.20;;;13.10;;
50709;SDS011;37033;49.994;21.992;2023-04-22T05:37:48;20.70;;;12.70;;
50709;SDS011;37033;49.994;21.992;2023-04-22T05:40:20;21.70;;;12.20;;
50709;SDS011;37033;49.994;21.992;2023-04-22T05:42:51;17.70;;;11.20;;
50709;SDS011;37033;49.994;21.992;2023-04-22T05:45:22;19.40;;;11.60;;
50709;SDS011;37033;49.994;21.992;2023-04-22T05:47:53;16.60;;;9.80;;
50709;SDS011;37033;49.994;21.992;2023-04-22T05:50:24;21.10;;;12.50;;
50709;SDS011;37033;49.994;21.992;2023-04-22T05:52:54;15.90;;;11.20;;
50709;SDS011;37033;49.994;21.992;2023-04-22T05:55:25;17.80;;;10.80;;
50709;SDS011;37033;49.994;21.992;2023-04-22T05:57:56;20.60;;;10.70;;
50709;SDS011;37033;49.994;21.992;2023-04-22T06:00:27;22.30;;;12.00;;
50709;SDS011;37033;49.994;21.992;2023-04-22T06:02:58;15.90;;;10.40;;
50709;SDS011;37033;49.994;21.992;2023-04-22T06:05:29;21.00;;;11.20;;
50709;SDS011;37033;49.994;21.992;2023-04-22T06:08:00;16.90;;;10.50;;
50709;SDS011;37033;49.994;21.992;2023-04-22T06:10:31;13.40;;;10.30;;
50709;SDS011;37033;49.994;21.992;2023-04-22T06:13:02;17.70;;;11.10;;
50709;SDS011;37033;49.994;21.992;2023-04-22T06:15:34;17.00;;;10.50;;
50709;SDS011;37033;49.994;21.992;2023-04-22T06:18:05;14.70;;;9.90;;
50709;SDS011;37033;49.994;21.992;2023-04-22T06:20:35;16.50;;;10.10;;
50709;SDS011;37033;49.994;21.992;2023-04-22T06:23:06;12.70;;;9.90;;
50709;SDS011;37033;49.994;21.992;2023-04-22T06:25:37;18.10;;;11.10;;
50709;SDS011;37033;49.994;21.992;2023-04-22T06:28:08;17.00;;;10.50;;
50709;SDS011;37033;49.994;21.992;2023-04-22T06:30:39;14.70;;;10.40;;
50709;SDS011;37033;49.994;21.992;2023-04-22T06:33:11;15.90;;;10.00;;
50709;SDS011;37033;49.994;21.992;2023-04-22T06:35:42;17.90;;;10.70;;
50709;SDS011;37033;49.994;21.992;2023-04-22T06:38:13;20.20;;;11.40;;
50709;SDS011;37033;49.994;21.992;2023-04-22T06:40:44;15.40;;;10.80;;
50709;SDS011;37033;49.994;21.992;2023-04-22T06:43:15;17.40;;;10.90;;
50709;SDS011;37033;49.994;21.992;2023-04-22T06:45:46;17.10;;;10.30;;
50709;SDS011;37033;49.994;21.992;2023-04-22T06:48:17;17.40;;;10.90;;
50709;SDS011;37033;49.994;21.992;2023-04-22T06:50:47;19.90;;;11.60;;
50709;SDS011;37033;49.994;21.992;2023-04-22T06:53:18;17.80;;;11.20;;
50709;SDS011;37033;49.994;21.992;2023-04-22T06:55:49;14.70;;;10.00;;
50709;SDS011;37033;49.994;21.992;2023-04-22T06:58:21;21.00;;;11.20;;
50709;SDS011;37033;49.994;21.992;2023-04-22T07:00:52;18.80;;;11.50;;
50709;SDS011;37033;49.994;21.992;2023-04-22T07:03:23;18.40;;;12.10;;
50709;SDS011;37033;49.994;21.992;2023-04-22T07:05:54;20.50;;;11.20;;
50709;SDS011;37033;49.994;21.992;2023-04-22T07:08:24;21.30;;;11.60;;
50709;SDS011;37033;49.994;21.992;2023-04-22T07:10:56;18.70;;;11.70;;
50709;SDS011;37033;49.994;21.992;2023-04-22T07:13:26;21.50;;;11.20;;
50709;SDS011;37033;49.994;21.992;2023-04-22T07:16:00;15.70;;;11.50;;
50709;SDS011;37033;49.994;21.992;2023-04-22T07:18:31;16.70;;;10.60;;
50709;SDS011;37033;49.994;21.992;2023-04-22T07:21:04;17.00;;;10.40;;
50709;SDS011;37033;49.994;21.992;2023-04-22T07:23:35;18.10;;;11.00;;
50709;SDS011;37033;49.994;21.992;2023-04-22T07:26:07;18.60;;;11.10;;
50709;SDS011;37033;49.994;21.992;2023-04-22T07:28:39;22.00;;;11.20;;
50709;SDS011;37033;49.994;21.992;2023-04-22T07:31:10;17.30;;;11.30;;
50709;SDS011;37033;49.994;21.992;2023-04-22T07:33:40;17.20;;;10.90;;
50709;SDS011;37033;49.994;21.992;2023-04-22T07:36:11;13.40;;;10.20;;
50709;SDS011;37033;49.994;21.992;2023-04-22T07:38:42;17.80;;;11.40;;
50709;SDS011;37033;49.994;21.992;2023-04-22T07:41:13;16.50;;;11.10;;
50709;SDS011;37033;49.994;21.992;2023-04-22T07:43:44;18.10;;;10.40;;
50709;SDS011;37033;49.994;21.992;2023-04-22T07:46:15;19.90;;;10.90;;
50709;SDS011;37033;49.994;21.992;2023-04-22T07:48:46;12.40;;;10.00;;
50709;SDS011;37033;49.994;21.992;2023-04-22T07:51:17;14.40;;;9.90;;
50709;SDS011;37033;49.994;21.992;2023-04-22T07:53:48;16.60;;;11.10;;
50709;SDS011;37033;49.994;21.992;2023-04-22T07:56:21;23.60;;;15.00;;
50709;SDS011;37033;49.994;21.992;2023-04-22T07:58:53;15.80;;;11.00;;
50709;SDS011;37033;49.994;21.992;2023-04-22T08:01:24;16.60;;;10.70;;
50709;SDS011;37033;49.994;21.992;2023-04-22T08:03:54;16.20;;;10.50;;
50709;SDS011;37033;49.994;21.992;2023-04-22T08:06:26;20.10;;;11.30;;
50709;SDS011;37033;49.994;21.992;2023-04-22T08:08:56;14.30;;;10.10;;
50709;SDS011;37033;49.994;21.992;2023-04-22T08:11:27;18.70;;;10.70;;
50709;SDS011;37033;49.994;21.992;2023-04-22T08:14:01;15.40;;;10.70;;
50709;SDS011;37033;49.994;21.992;2023-04-22T08:16:37;14.00;;;10.40;;
50709;SDS011;37033;49.994;21.992;2023-04-22T08:19:10;12.50;;;10.00;;
50709;SDS011;37033;49.994;21.992;2023-04-22T08:21:41;13.40;;;10.00;;
50709;SDS011;37033;49.994;21.992;2023-04-22T08:24:13;15.70;;;9.90;;
50709;SDS011;37033;49.994;21.992;2023-04-22T08:26:43;29.90;;;15.70;;
50709;SDS011;37033;49.994;21.992;2023-04-22T08:29:14;11.10;;;9.30;;
50709;SDS011;37033;49.994;21.992;2023-04-22T08:31:45;12.00;;;9.00;;
50709;SDS011;37033;49.994;21.992;2023-04-22T08:34:16;12.40;;;8.60;;
50709;SDS011;37033;49.994;21.992;2023-04-22T08:36:51;13.60;;;7.90;;
50709;SDS011;37033;49.994;21.992;2023-04-22T08:39:26;15.70;;;7.70;;
50709;SDS011;37033;49.994;21.992;2023-04-22T08:41:57;11.80;;;7.60;;
50709;SDS011;37033;49.994;21.992;2023-04-22T08:44:33;16.10;;;10.20;;
50709;SDS011;37033;49.994;21.992;2023-04-22T08:47:05;11.30;;;8.50;;
50709;SDS011;37033;49.994;21.992;2023-04-22T08:49:37;10.70;;;8.70;;
50709;SDS011;37033;49.994;21.992;2023-04-22T08:52:08;14.00;;;8.70;;
50709;SDS011;37033;49.994;21.992;2023-04-22T08:54:42;17.50;;;7.80;;
50709;SDS011;37033;49.994;21.992;2023-04-22T08:57:13;8.70;;;7.80;;
50709;SDS011;37033;49.994;21.992;2023-04-22T08:59:46;11.50;;;8.10;;
50709;SDS011;37033;49.994;21.992;2023-04-22T09:02:18;9.50;;;8.20;;
50709;SDS011;37033;49.994;21.992;2023-04-22T09:04:53;9.80;;;7.90;;
50709;SDS011;37033;49.994;21.992;2023-04-22T09:07:33;13.00;;;7.50;;
50709;SDS011;37033;49.994;21.992;2023-04-22T09:10:07;13.70;;;7.00;;
50709;SDS011;37033;49.994;21.992;2023-04-22T09:12:42;60.60;;;37.10;;
50709;SDS011;37033;49.994;21.992;2023-04-22T09:15:17;7.50;;;4.50;;
50709;SDS011;37033;49.994;21.992;2023-04-22T09:17:49;6.60;;;4.00;;
50709;SDS011;37033;49.994;21.992;2023-04-22T09:20:34;4.40;;;3.00;;
50709;SDS011;37033;49.994;21.992;2023-04-22T09:23:10;4.30;;;3.00;;
50709;SDS011;37033;49.994;21.992;2023-04-22T09:25:45;3.90;;;3.10;;
50709;SDS011;37033;49.994;21.992;2023-04-22T09:28:21;5.50;;;3.20;;
50709;SDS011;37033;49.994;21.992;2023-04-22T09:30:52;4.70;;;3.60;;
50709;SDS011;37033;49.994;21.992;2023-04-22T09:33:30;3.60;;;3.30;;
50709;SDS011;37033;49.994;21.992;2023-04-22T09:36:08;5.70;;;3.30;;
50709;SDS011;37033;49.994;21.992;2023-04-22T09:38:39;9.30;;;3.30;;
50709;SDS011;37033;49.994;21.992;2023-04-22T09:41:19;2.40;;;2.20;;
50709;SDS011;37033;49.994;21.992;2023-04-22T09:43:56;3.50;;;2.50;;
50709;SDS011;37033;49.994;21.992;2023-04-22T09:46:29;6.00;;;3.10;;
50709;SDS011;37033;49.994;21.992;2023-04-22T09:49:01;2.40;;;2.10;;
50709;SDS011;37033;49.994;21.992;2023-04-22T09:51:35;3.10;;;2.20;;
50709;SDS011;37033;49.994;21.992;2023-04-22T09:56:40;4.00;;;2.10;;
50709;SDS011;37033;49.994;21.992;2023-04-22T09:59:16;2.80;;;2.40;;
50709;SDS011;37033;49.994;21.992;2023-04-22T10:01:50;5.50;;;2.70;;
50709;SDS011;37033;49.994;21.992;2023-04-22T10:04:24;5.50;;;2.50;;
50709;SDS011;37033;49.994;21.992;2023-04-22T10:06:55;5.40;;;3.50;;
50709;SDS011;37033;49.994;21.992;2023-04-22T10:09:26;3.50;;;2.90;;
50709;SDS011;37033;49.994;21.992;2023-04-22T10:11:57;3.10;;;2.00;;
50709;SDS011;37033;49.994;21.992;2023-04-22T10:14:28;3.90;;;2.70;;
50709;SDS011;37033;49.994;21.992;2023-04-22T10:16:59;6.70;;;2.80;;
50709;SDS011;37033;49.994;21.992;2023-04-22T10:19:34;3.00;;;2.70;;
50709;SDS011;37033;49.994;21.992;2023-04-22T10:22:07;4.50;;;2.30;;
50709;SDS011;37033;49.994;21.992;2023-04-22T10:24:40;5.10;;;2.30;;
50709;SDS011;37033;49.994;21.992;2023-04-22T10:27:20;6.20;;;2.60;;
50709;SDS011;37033;49.994;21.992;2023-04-22T10:29:52;4.90;;;2.60;;
50709;SDS011;37033;49.994;21.992;2023-04-22T10:32:26;3.40;;;2.40;;
50709;SDS011;37033;49.994;21.992;2023-04-22T10:35:07;2.30;;;1.70;;
50709;SDS011;37033;49.994;21.992;2023-04-22T10:37:43;2.20;;;1.90;;
50709;SDS011;37033;49.994;21.992;2023-04-22T10:40:21;4.40;;;2.60;;
50709;SDS011;37033;49.994;21.992;2023-04-22T10:42:57;3.80;;;2.60;;
50709;SDS011;37033;49.994;21.992;2023-04-22T10:45:31;3.60;;;2.20;;
50709;SDS011;37033;49.994;21.992;2023-04-22T10:48:05;5.20;;;2.80;;
50709;SDS011;37033;49.994;21.992;2023-04-22T10:50:38;3.50;;;2.50;;
50709;SDS011;37033;49.994;21.992;2023-04-22T10:56:16;3.60;;;2.80;;
50709;SDS011;37033;49.994;21.992;2023-04-22T10:58:47;3.40;;;2.70;;
50709;SDS011;37033;49.994;21.992;2023-04-22T11:01:18;4.50;;;2.70;;
50709;SDS011;37033;49.994;21.992;2023-04-22T11:03:50;5.40;;;3.30;;
50709;SDS011;37033;49.994;21.992;2023-04-22T11:06:24;3.80;;;3.10;;
50709;SDS011;37033;49.994;21.992;2023-04-22T11:09:08;4.30;;;2.70;;
50709;SDS011;37033;49.994;21.992;2023-04-22T11:11:40;3.50;;;2.80;;
50709;SDS011;37033;49.994;21.992;2023-04-22T11:16:46;2.70;;;2.50;;
50709;SDS011;37033;49.994;21.992;2023-04-22T11:19:19;6.00;;;3.00;;
50709;SDS011;37033;49.994;21.992;2023-04-22T11:21:50;6.20;;;3.30;;
50709;SDS011;37033;49.994;21.992;2023-04-22T11:24:23;3.20;;;2.90;;
50709;SDS011;37033;49.994;21.992;2023-04-22T11:26:55;3.00;;;2.60;;
50709;SDS011;37033;49.994;21.992;2023-04-22T11:29:26;3.20;;;2.50;;
50709;SDS011;37033;49.994;21.992;2023-04-22T11:31:57;4.10;;;2.90;;
50709;SDS011;37033;49.994;21.992;2023-04-22T11:34:29;3.30;;;2.60;;
50709;SDS011;37033;49.994;21.992;2023-04-22T11:37:00;4.30;;;2.80;;
50709;SDS011;37033;49.994;21.992;2023-04-22T11:39:37;7.00;;;3.00;;
50709;SDS011;37033;49.994;21.992;2023-04-22T11:42:11;5.70;;;3.10;;
50709;SDS011;37033;49.994;21.992;2023-04-22T11:44:50;6.20;;;2.20;;
50709;SDS011;37033;49.994;21.992;2023-04-22T11:47:21;3.70;;;3.00;;
50709;SDS011;37033;49.994;21.992;2023-04-22T11:49:59;3.00;;;2.60;;
50709;SDS011;37033;49.994;21.992;2023-04-22T11:52:42;5.80;;;2.70;;
50709;SDS011;37033;49.994;21.992;2023-04-22T11:55:19;4.00;;;2.80;;
50709;SDS011;37033;49.994;21.992;2023-04-22T11:57:57;3.00;;;2.50;;
50709;SDS011;37033;49.994;21.992;2023-04-22T12:00:30;4.50;;;2.70;;
50709;SDS011;37033;49.994;21.992;2023-04-22T12:03:06;4.00;;;3.20;;
50709;SDS011;37033;49.994;21.992;2023-04-22T12:05:42;5.00;;;2.80;;
50709;SDS011;37033;49.994;21.992;2023-04-22T12:08:14;5.00;;;2.50;;
50709;SDS011;37033;49.994;21.992;2023-04-22T12:10:50;3.30;;;3.00;;
50709;SDS011;37033;49.994;21.992;2023-04-22T12:13:27;3.50;;;2.50;;
50709;SDS011;37033;49.994;21.992;2023-04-22T12:15:59;3.10;;;2.70;;
50709;SDS011;37033;49.994;21.992;2023-04-22T12:18:31;4.10;;;2.40;;
50709;SDS011;37033;49.994;21.992;2023-04-22T12:21:08;7.40;;;2.60;;
50709;SDS011;37033;49.994;21.992;2023-04-22T12:23:41;2.60;;;2.30;;
50709;SDS011;37033;49.994;21.992;2023-04-22T12:26:15;5.40;;;2.90;;
50709;SDS011;37033;49.994;21.992;2023-04-22T12:28:48;4.80;;;3.10;;
50709;SDS011;37033;49.994;21.992;2023-04-22T12:31:23;3.50;;;2.80;;
50709;SDS011;37033;49.994;21.992;2023-04-22T12:33:54;2.30;;;2.00;;
50709;SDS011;37033;49.994;21.992;2023-04-22T12:36:27;4.20;;;2.60;;
50709;SDS011;37033;49.994;21.992;2023-04-22T12:39:01;3.10;;;2.30;;
50709;SDS011;37033;49.994;21.992;2023-04-22T12:41:33;2.30;;;1.90;;
50709;SDS011;37033;49.994;21.992;2023-04-22T12:44:07;4.20;;;1.50;;
50709;SDS011;37033;49.994;21.992;2023-04-22T12:46:38;2.10;;;1.30;;
50709;SDS011;37033;49.994;21.992;2023-04-22T12:49:09;3.30;;;1.40;;
50709;SDS011;37033;49.994;21.992;2023-04-22T12:51:41;1.80;;;1.30;;
50709;SDS011;37033;49.994;21.992;2023-04-22T12:54:14;2.60;;;1.30;;
50709;SDS011;37033;49.994;21.992;2023-04-22T12:56:48;29.00;;;4.80;;
50709;SDS011;37033;49.994;21.992;2023-04-22T12:59:20;5.10;;;1.80;;
50709;SDS011;37033;49.994;21.992;2023-04-22T13:01:51;5.10;;;2.70;;
50709;SDS011;37033;49.994;21.992;2023-04-22T13:04:22;2.90;;;2.40;;
50709;SDS011;37033;49.994;21.992;2023-04-22T13:06:56;3.80;;;3.00;;
50709;SDS011;37033;49.994;21.992;2023-04-22T13:09:31;3.40;;;2.70;;
50709;SDS011;37033;49.994;21.992;2023-04-22T13:12:05;3.70;;;3.10;;
50709;SDS011;37033;49.994;21.992;2023-04-22T13:14:36;8.90;;;3.10;;
50709;SDS011;37033;49.994;21.992;2023-04-22T13:17:07;96.90;;;12.50;;
50709;SDS011;37033;49.994;21.992;2023-04-22T13:19:40;8.10;;;3.00;;
50709;SDS011;37033;49.994;21.992;2023-04-22T13:22:12;4.70;;;3.80;;
50709;SDS011;37033;49.994;21.992;2023-04-22T13:24:47;6.70;;;3.40;;
50709;SDS011;37033;49.994;21.992;2023-04-22T13:27:18;5.10;;;3.90;;
50709;SDS011;37033;49.994;21.992;2023-04-22T13:29:55;3.50;;;2.90;;
50709;SDS011;37033;49.994;21.992;2023-04-22T13:32:26;3.50;;;3.20;;
50709;SDS011;37033;49.994;21.992;2023-04-22T13:34:57;3.40;;;2.40;;
50709;SDS011;37033;49.994;21.992;2023-04-22T13:37:28;3.40;;;2.80;;
50709;SDS011;37033;49.994;21.992;2023-04-22T13:40:01;5.30;;;2.70;;
50709;SDS011;37033;49.994;21.992;2023-04-22T13:42:34;4.10;;;2.80;;
50709;SDS011;37033;49.994;21.992;2023-04-22T13:45:09;7.20;;;2.70;;
50709;SDS011;37033;49.994;21.992;2023-04-22T13:47:43;6.50;;;3.10;;
50709;SDS011;37033;49.994;21.992;2023-04-22T13:50:14;6.10;;;3.60;;
50709;SDS011;37033;49.994;21.992;2023-04-22T13:52:45;5.20;;;4.00;;
50709;SDS011;37033;49.994;21.992;2023-04-22T13:55:20;5.70;;;3.30;;
50709;SDS011;37033;49.994;21.992;2023-04-22T13:57:51;6.70;;;3.20;;
50709;SDS011;37033;49.994;21.992;2023-04-22T14:00:22;4.70;;;3.20;;
50709;SDS011;37033;49.994;21.992;2023-04-22T14:02:53;4.50;;;3.00;;
50709;SDS011;37033;49.994;21.992;2023-04-22T14:05:24;4.40;;;3.80;;
50709;SDS011;37033;49.994;21.992;2023-04-22T14:07:55;7.90;;;4.30;;
50709;SDS011;37033;49.994;21.992;2023-04-22T14:10:30;4.20;;;3.00;;
50709;SDS011;37033;49.994;21.992;2023-04-22T14:15:31;4.90;;;3.30;;
50709;SDS011;37033;49.994;21.992;2023-04-22T14:18:06;3.60;;;3.00;;
50709;SDS011;37033;49.994;21.992;2023-04-22T14:20:39;8.90;;;4.30;;
50709;SDS011;37033;49.994;21.992;2023-04-22T14:23:13;8.00;;;6.00;;
50709;SDS011;37033;49.994;21.992;2023-04-22T14:25:44;4.20;;;3.50;;
50709;SDS011;37033;49.994;21.992;2023-04-22T14:28:16;9.10;;;6.70;;
50709;SDS011;37033;49.994;21.992;2023-04-22T14:30:47;5.20;;;4.10;;
50709;SDS011;37033;49.994;21.992;2023-04-22T14:33:19;7.50;;;3.40;;
50709;SDS011;37033;49.994;21.992;2023-04-22T14:35:53;5.00;;;2.50;;
50709;SDS011;37033;49.994;21.992;2023-04-22T14:38:27;6.10;;;3.30;;
50709;SDS011;37033;49.994;21.992;2023-04-22T14:41:01;3.20;;;2.70;;
50709;SDS011;37033;49.994;21.992;2023-04-22T14:43:34;5.10;;;2.80;;
50709;SDS011;37033;49.994;21.992;2023-04-22T14:46:05;7.00;;;4.50;;
50709;SDS011;37033;49.994;21.992;2023-04-22T14:48:41;6.30;;;3.10;;
50709;SDS011;37033;49.994;21.992;2023-04-22T14:51:12;3.70;;;2.70;;
50709;SDS011;37033;49.994;21.992;2023-04-22T14:53:45;5.40;;;3.60;;
50709;SDS011;37033;49.994;21.992;2023-04-22T14:56:17;7.30;;;4.30;;
50709;SDS011;37033;49.994;21.992;2023-04-22T14:58:48;3.30;;;2.30;;
50709;SDS011;37033;49.994;21.992;2023-04-22T15:01:19;4.00;;;2.90;;